Time;durP1;ratioP1;P1;durP2;ratioP2;P2;SDS_P1;SDS_P2;PMS_P1;PMS_P2;Temp;Humidity;BMP_temperature;BMP_pressure;BME280_temperature;BME280_humidity;BME280_pressure;Samples;Min_cycle;Max_cycle;Signal;HPM_P1;HPM_P2
2021/04/20 00:02:24;;;;;;;58.83;33.07;;;;;;;;;;4360787;32;20470;-77
2021/04/20 00:04:49;;;;;;;64.60;35.03;;;;;;;;;;4362035;32;20169;-78
2021/04/20 00:07:15;;;;;;;60.33;33.13;;;;;;;;;;4360414;32;20635;-77
2021/04/20 00:09:43;;;;;;;63.70;33.87;;;;;;;;;;4360874;33;20225;-76
2021/04/20 00:12:09;;;;;;;60.33;31.93;;;;;;;;;;4362109;32;20228;-77
2021/04/20 00:14:34;;;;;;;54.47;30.80;;;;;;;;;;4362043;32;20138;-77
2021/04/20 00:17:03;;;;;;;61.27;32.60;;;;;;;;;;4361566;32;20516;-77
2021/04/20 00:19:44;;;;;;;57.60;31.47;;;;;;;;;;4361567;32;20286;-77
2021/04/20 00:22:18;;;;;;;60.00;32.33;;;;;;;;;;4362412;32;20201;-76
2021/04/20 00:24:44;;;;;;;52.13;30.10;;;;;;;;;;4362001;32;20131;-76
2021/04/20 00:27:09;;;;;;;61.47;34.10;;;;;;;;;;4361891;32;20264;-76
2021/04/20 00:29:34;;;;;;;52.70;30.27;;;;;;;;;;4361852;32;20147;-76
2021/04/20 00:32:12;;;;;;;65.37;35.50;;;;;;;;;;4361250;33;20136;-77
2021/04/20 00:34:37;;;;;;;59.93;31.73;;;;;;;;;;4360862;32;20220;-77
2021/04/20 00:37:02;;;;;;;61.03;31.83;;;;;;;;;;4360569;33;20171;-76
2021/04/20 00:39:36;;;;;;;55.63;30.90;;;;;;;;;;4360141;32;20239;-76
2021/04/20 00:42:13;;;;;;;52.90;29.43;;;;;;;;;;4361138;32;20139;-78
2021/04/20 00:44:38;;;;;;;60.87;33.17;;;;;;;;;;4359964;33;21032;-79
2021/04/20 00:47:03;;;;;;;52.87;29.47;;;;;;;;;;4360129;32;20163;-78
2021/04/20 00:49:29;;;;;;;51.00;29.00;;;;;;;;;;4361148;32;20131;-78
2021/04/20 00:51:55;;;;;;;48.63;29.10;;;;;;;;;;4360894;32;20162;-79
2021/04/20 00:54:20;;;;;;;54.87;32.10;;;;;;;;;;4361106;32;20221;-78
2021/04/20 00:56:47;;;;;;;61.53;34.40;;;;;;;;;;4372331;32;20197;-78
2021/04/20 00:59:16;;;;;;;62.43;33.70;;;;;;;;;;4360579;32;20581;-78
2021/04/20 01:01:42;;;;;;;63.50;35.03;;;;;;;;;;4360654;32;20205;-78
2021/04/20 01:04:14;;;;;;;63.83;34.93;;;;;;;;;;4359932;32;20229;-78
2021/04/20 01:06:40;;;;;;;64.63;33.47;;;;;;;;;;4359536;32;20487;-77
2021/04/20 01:09:06;;;;;;;53.73;29.77;;;;;;;;;;4360842;32;20139;-77
2021/04/20 01:11:33;;;;;;;56.37;30.13;;;;;;;;;;4360760;32;20231;-77
2021/04/20 01:14:00;;;;;;;60.30;33.37;;;;;;;;;;4361040;32;20174;-78
2021/04/20 01:16:46;;;;;;;57.10;32.60;;;;;;;;;;4360942;32;20161;-77
2021/04/20 01:19:17;;;;;;;50.17;30.23;;;;;;;;;;4360678;32;20238;-77
2021/04/20 01:21:46;;;;;;;65.37;32.50;;;;;;;;;;4361269;32;20139;-77
2021/04/20 01:24:14;;;;;;;54.77;31.87;;;;;;;;;;4360440;32;20206;-77
2021/04/20 01:26:49;;;;;;;48.77;28.13;;;;;;;;;;4360984;32;20201;-77
2021/04/20 01:29:15;;;;;;;50.00;29.67;;;;;;;;;;4359865;32;20488;-77
2021/04/20 01:31:44;;;;;;;54.20;29.87;;;;;;;;;;4361147;32;20161;-77
2021/04/20 01:34:10;;;;;;;50.83;28.43;;;;;;;;;;4360727;32;20143;-77
2021/04/20 01:36:36;;;;;;;50.60;29.10;;;;;;;;;;4360813;32;20165;-77
2021/04/20 01:39:12;;;;;;;50.77;27.37;;;;;;;;;;4360500;32;20147;-77
2021/04/20 01:41:50;;;;;;;57.43;31.10;;;;;;;;;;4360386;32;20135;-77
2021/04/20 01:44:15;;;;;;;59.07;32.50;;;;;;;;;;4360763;32;20201;-77
2021/04/20 01:46:43;;;;;;;51.57;27.97;;;;;;;;;;4358820;32;20167;-77
2021/04/20 01:49:50;;;;;;;;;;;;;;;;;;;;;
2021/04/20 01:52:27;;;;;;;49.23;27.97;;;;;;;;;;4357592;32;20163;-79
2021/04/20 01:54:53;;;;;;;51.70;27.73;;;;;;;;;;4360759;32;20192;-78
2021/04/20 01:57:19;;;;;;;52.40;29.17;;;;;;;;;;4360585;32;20151;-78
2021/04/20 01:59:44;;;;;;;54.67;30.73;;;;;;;;;;4360876;32;20198;-77
2021/04/20 02:02:10;;;;;;;63.27;33.33;;;;;;;;;;4358507;32;20168;-78
2021/04/20 02:04:35;;;;;;;57.17;31.37;;;;;;;;;;4360970;32;20198;-78
2021/04/20 02:07:00;;;;;;;53.77;30.57;;;;;;;;;;4360064;32;20189;-78
2021/04/20 02:09:26;;;;;;;55.07;31.20;;;;;;;;;;4360510;32;20170;-78
2021/04/20 02:11:51;;;;;;;61.03;32.63;;;;;;;;;;4360369;32;20182;-78
2021/04/20 02:14:17;;;;;;;61.13;31.93;;;;;;;;;;4360371;32;20169;-78
2021/04/20 02:16:45;;;;;;;58.00;32.77;;;;;;;;;;4358888;33;20170;-78
2021/04/20 02:19:20;;;;;;;59.63;31.77;;;;;;;;;;4359068;32;20199;-78
2021/04/20 02:21:52;;;;;;;65.17;35.53;;;;;;;;;;4361135;32;20173;-78
2021/04/20 02:24:17;;;;;;;74.47;38.57;;;;;;;;;;4360369;32;20196;-77
2021/04/20 02:26:43;;;;;;;74.53;36.47;;;;;;;;;;4360226;33;20194;-77
2021/04/20 02:29:12;;;;;;;73.70;40.10;;;;;;;;;;4360089;32;20605;-77
2021/04/20 02:31:39;;;;;;;91.10;42.40;;;;;;;;;;4360334;32;20262;-77
2021/04/20 02:34:05;;;;;;;85.43;44.30;;;;;;;;;;4360424;32;20481;-78
2021/04/20 02:36:31;;;;;;;69.53;37.57;;;;;;;;;;4360079;32;20173;-77
2021/04/20 02:38:57;;;;;;;93.67;44.40;;;;;;;;;;4358777;33;20163;-77
2021/04/20 02:41:23;;;;;;;68.00;35.73;;;;;;;;;;4360323;32;20159;-78
2021/04/20 02:43:49;;;;;;;86.47;41.70;;;;;;;;;;4360440;32;20200;-78
2021/04/20 02:46:15;;;;;;;88.47;42.03;;;;;;;;;;4358588;33;20222;-78
2021/04/20 02:48:40;;;;;;;72.40;37.53;;;;;;;;;;4360366;32;20147;-78
2021/04/20 02:51:11;;;;;;;85.97;40.80;;;;;;;;;;4359912;32;20226;-78
2021/04/20 02:53:37;;;;;;;82.93;40.70;;;;;;;;;;4371642;32;20175;-78
2021/04/20 02:56:02;;;;;;;83.90;42.00;;;;;;;;;;4359695;33;20147;-77
2021/04/20 02:58:28;;;;;;;90.07;44.77;;;;;;;;;;4359200;33;20472;-78
2021/04/20 03:00:59;;;;;;;71.97;38.03;;;;;;;;;;4360016;32;20472;-78
2021/04/20 03:03:37;;;;;;;83.47;40.07;;;;;;;;;;4359863;33;20230;-77
2021/04/20 03:06:03;;;;;;;79.23;40.60;;;;;;;;;;4360350;32;20173;-77
2021/04/20 03:08:29;;;;;;;81.67;41.67;;;;;;;;;;4370853;32;20237;-78
2021/04/20 03:10:57;;;;;;;99.37;44.77;;;;;;;;;;4359845;32;20159;-79
2021/04/20 03:13:22;;;;;;;94.03;44.30;;;;;;;;;;4361293;32;20162;-79
2021/04/20 03:15:47;;;;;;;87.73;41.20;;;;;;;;;;4363179;32;20135;-78
2021/04/20 03:18:20;;;;;;;69.30;37.73;;;;;;;;;;4375272;32;20187;-77
2021/04/20 03:20:49;;;;;;;92.47;45.53;;;;;;;;;;4361677;32;20174;-78
2021/04/20 03:23:20;;;;;;;100.93;46.73;;;;;;;;;;4361591;32;20159;-76
2021/04/20 03:25:45;;;;;;;97.47;45.13;;;;;;;;;;4361458;32;20224;-76
2021/04/20 03:28:10;;;;;;;84.90;43.57;;;;;;;;;;4362199;32;20152;-77
2021/04/20 03:30:39;;;;;;;96.33;46.93;;;;;;;;;;4361125;32;20586;-78
2021/04/20 03:33:22;;;;;;;96.93;46.37;;;;;;;;;;4362571;32;20147;-76
2021/04/20 03:36:00;;;;;;;108.17;48.53;;;;;;;;;;4362339;32;20170;-77
2021/04/20 03:38:33;;;;;;;90.53;43.77;;;;;;;;;;4356775;32;20169;-77
2021/04/20 03:41:10;;;;;;;95.37;45.63;;;;;;;;;;4362801;32;20333;-76
2021/04/20 03:43:37;;;;;;;95.30;45.50;;;;;;;;;;4362581;32;20139;-77
2021/04/20 03:46:06;;;;;;;98.37;47.30;;;;;;;;;;4362069;32;20135;-78
2021/04/20 03:48:39;;;;;;;89.27;43.70;;;;;;;;;;4361607;32;20147;-77
2021/04/20 03:51:06;;;;;;;100.67;47.07;;;;;;;;;;4348212;32;20166;-78
2021/04/20 03:53:32;;;;;;;96.87;45.90;;;;;;;;;;4347182;32;20597;-77
2021/04/20 03:55:59;;;;;;;97.50;47.03;;;;;;;;;;4347651;32;20152;-76
2021/04/20 03:58:26;;;;;;;100.60;48.53;;;;;;;;;;4347349;32;20142;-77
2021/04/20 04:00:58;;;;;;;95.07;46.30;;;;;;;;;;4347076;32;20199;-76
2021/04/20 04:03:33;;;;;;;99.13;47.97;;;;;;;;;;4347566;32;20147;-77
2021/04/20 04:05:59;;;;;;;105.37;48.33;;;;;;;;;;4352590;33;20217;-78
2021/04/20 04:08:25;;;;;;;104.30;47.33;;;;;;;;;;4361786;32;20257;-76
2021/04/20 04:10:54;;;;;;;108.00;49.63;;;;;;;;;;4366564;32;20245;-78
2021/04/20 04:13:24;;;;;;;100.17;46.93;;;;;;;;;;4346922;33;20140;-77
2021/04/20 04:15:52;;;;;;;100.93;47.10;;;;;;;;;;4346919;32;20469;-77
2021/04/20 04:18:18;;;;;;;110.80;47.23;;;;;;;;;;4346708;32;20165;-77
2021/04/20 04:20:46;;;;;;;95.37;46.50;;;;;;;;;;4346602;32;20151;-77
2021/04/20 04:23:13;;;;;;;106.17;48.57;;;;;;;;;;4347074;32;20144;-77
2021/04/20 04:25:41;;;;;;;96.07;45.50;;;;;;;;;;4346479;32;20194;-77
2021/04/20 04:28:08;;;;;;;97.73;47.07;;;;;;;;;;4346508;32;20152;-76
2021/04/20 04:30:33;;;;;;;110.03;48.27;;;;;;;;;;4345334;33;20623;-79
2021/04/20 04:33:00;;;;;;;99.83;46.20;;;;;;;;;;4346514;32;20233;-77
2021/04/20 04:35:26;;;;;;;103.67;46.83;;;;;;;;;;4346690;33;20266;-77
2021/04/20 04:37:51;;;;;;;93.23;44.20;;;;;;;;;;4345574;33;20164;-76
2021/04/20 04:40:18;;;;;;;92.83;44.80;;;;;;;;;;4346472;32;20148;-77
2021/04/20 04:42:43;;;;;;;105.00;47.47;;;;;;;;;;4346499;33;20162;-76
2021/04/20 04:45:09;;;;;;;104.43;49.00;;;;;;;;;;4347170;32;20540;-77
2021/04/20 04:47:40;;;;;;;80.13;41.53;;;;;;;;;;4346117;32;20164;-76
2021/04/20 04:50:07;;;;;;;97.63;45.37;;;;;;;;;;4347305;32;20162;-75
2021/04/20 04:52:32;;;;;;;96.17;46.57;;;;;;;;;;4346311;33;20218;-76
2021/04/20 04:54:58;;;;;;;93.77;44.57;;;;;;;;;;4347150;33;20526;-77
2021/04/20 04:57:26;;;;;;;90.90;44.77;;;;;;;;;;4360416;32;20215;-76
2021/04/20 04:59:53;;;;;;;87.43;42.53;;;;;;;;;;4360144;32;20143;-76
2021/04/20 05:02:19;;;;;;;84.73;41.80;;;;;;;;;;4372880;32;20206;-76
2021/04/20 05:04:51;;;;;;;78.87;39.33;;;;;;;;;;4372632;32;20532;-76
2021/04/20 05:07:21;;;;;;;86.67;41.07;;;;;;;;;;4359955;32;20577;-77
2021/04/20 05:09:46;;;;;;;85.73;43.57;;;;;;;;;;4361523;32;20161;-76
2021/04/20 05:12:11;;;;;;;87.63;43.27;;;;;;;;;;4361084;32;20143;-78
2021/04/20 05:14:36;;;;;;;82.57;41.40;;;;;;;;;;4371905;32;20186;-77
2021/04/20 05:17:03;;;;;;;86.83;44.47;;;;;;;;;;4359896;32;20163;-77
2021/04/20 05:19:30;;;;;;;92.13;43.60;;;;;;;;;;4361146;32;20237;-78
2021/04/20 05:22:02;;;;;;;85.27;40.40;;;;;;;;;;4360937;32;20169;-77
2021/04/20 05:24:27;;;;;;;83.47;42.93;;;;;;;;;;4360559;32;20139;-74
2021/04/20 05:26:53;;;;;;;82.23;41.20;;;;;;;;;;4361115;32;20147;-78
2021/04/20 05:29:27;;;;;;;79.07;39.67;;;;;;;;;;4361562;32;20200;-76
2021/04/20 05:32:16;;;;;;;79.27;39.70;;;;;;;;;;4361090;32;20150;-76
2021/04/20 05:34:41;;;;;;;88.77;41.40;;;;;;;;;;4359402;32;20182;-76
2021/04/20 05:37:06;;;;;;;79.03;39.53;;;;;;;;;;4359727;32;20194;-74
2021/04/20 05:39:32;;;;;;;78.67;40.53;;;;;;;;;;4360161;32;20155;-76
2021/04/20 05:41:57;;;;;;;71.07;37.27;;;;;;;;;;4359841;32;20487;-76
2021/04/20 05:44:22;;;;;;;75.67;38.20;;;;;;;;;;4360036;32;20206;-77
2021/04/20 05:46:48;;;;;;;75.20;39.17;;;;;;;;;;4359825;32;20516;-75
2021/04/20 05:49:14;;;;;;;65.80;36.33;;;;;;;;;;4360764;32;20151;-76
2021/04/20 05:51:40;;;;;;;72.60;37.53;;;;;;;;;;4359924;32;20529;-76
2021/04/20 05:54:05;;;;;;;73.40;39.10;;;;;;;;;;4358755;32;20194;-77
2021/04/20 05:56:31;;;;;;;72.60;39.27;;;;;;;;;;4359780;32;20492;-76
2021/04/20 05:58:57;;;;;;;73.90;35.77;;;;;;;;;;4359136;32;20240;-76
2021/04/20 06:01:23;;;;;;;63.60;34.97;;;;;;;;;;4360294;32;20194;-75
2021/04/20 06:03:49;;;;;;;74.90;38.83;;;;;;;;;;4359853;32;20217;-75
2021/04/20 06:06:17;;;;;;;69.60;37.43;;;;;;;;;;4358955;32;20163;-76
2021/04/20 06:08:42;;;;;;;70.27;36.90;;;;;;;;;;4355999;32;20239;-77
2021/04/20 06:11:11;;;;;;;68.80;35.47;;;;;;;;;;4356703;32;20158;-76
2021/04/20 06:13:37;;;;;;;62.20;33.87;;;;;;;;;;4344816;32;20629;-76
2021/04/20 06:16:02;;;;;;;66.83;35.53;;;;;;;;;;4356041;33;20167;-73
2021/04/20 06:18:30;;;;;;;59.43;32.77;;;;;;;;;;4345102;33;20136;-76
2021/04/20 06:20:56;;;;;;;67.00;34.73;;;;;;;;;;4344950;33;20222;-75
2021/04/20 06:23:22;;;;;;;65.17;35.07;;;;;;;;;;4344382;33;20222;-76
2021/04/20 06:25:51;;;;;;;63.07;33.70;;;;;;;;;;4345655;33;20604;-74
2021/04/20 06:28:16;;;;;;;63.07;33.90;;;;;;;;;;4344580;33;20178;-76
2021/04/20 06:30:42;;;;;;;60.80;33.97;;;;;;;;;;4345355;33;20143;-75
2021/04/20 06:33:08;;;;;;;66.40;34.30;;;;;;;;;;4344204;33;20190;-77
2021/04/20 06:35:33;;;;;;;65.27;34.33;;;;;;;;;;4344821;33;20138;-76
2021/04/20 06:38:02;;;;;;;68.10;35.80;;;;;;;;;;4346513;33;20191;-75
2021/04/20 06:40:39;;;;;;;62.97;34.10;;;;;;;;;;4352182;33;20201;-76
2021/04/20 06:43:05;;;;;;;59.57;31.90;;;;;;;;;;4347679;33;20524;-77
2021/04/20 06:45:43;;;;;;;60.67;33.73;;;;;;;;;;4347235;33;20216;-76
2021/04/20 06:48:25;;;;;;;62.47;34.30;;;;;;;;;;4354809;32;20504;-76
2021/04/20 06:50:55;;;;;;;64.33;34.70;;;;;;;;;;4362000;32;20158;-77
2021/04/20 06:53:24;;;;;;;64.60;35.23;;;;;;;;;;4353463;32;20164;-77
2021/04/20 06:55:59;;;;;;;62.13;33.17;;;;;;;;;;4349696;33;20202;-78
2021/04/20 06:58:50;;;;;;;64.83;34.30;;;;;;;;;;4353798;32;20139;-76
2021/04/20 07:01:18;;;;;;;65.07;33.80;;;;;;;;;;4345000;33;20159;-78
2021/04/20 07:03:55;;;;;;;61.73;34.23;;;;;;;;;;4356240;33;20151;-77
2021/04/20 07:06:22;;;;;;;63.80;34.47;;;;;;;;;;4348342;32;20190;-77
2021/04/20 07:08:57;;;;;;;60.23;32.10;;;;;;;;;;4361594;32;20155;-77
2021/04/20 07:11:25;;;;;;;67.00;33.38;;;;;;;;;;4361247;32;20146;-77
2021/04/20 07:13:52;;;;;;;63.22;34.42;;;;;;;;;;4373264;32;20170;-78
2021/04/20 07:16:26;;;;;;;62.60;32.73;;;;;;;;;;4362336;32;20197;-77
2021/04/20 07:19:10;;;;;;;62.10;34.07;;;;;;;;;;4354326;32;20147;-77
2021/04/20 07:21:45;;;;;;;56.88;32.63;;;;;;;;;;4347303;33;20139;-78
2021/04/20 07:24:18;;;;;;;63.70;33.17;;;;;;;;;;4354503;33;20158;-77
2021/04/20 07:26:48;;;;;;;60.88;33.70;;;;;;;;;;4346499;33;20198;-78
2021/04/20 07:29:21;;;;;;;54.85;33.17;;;;;;;;;;4351601;32;20159;-78
2021/04/20 07:32:09;;;;;;;61.17;33.47;;;;;;;;;;4361557;32;20163;-76
2021/04/20 07:34:37;;;;;;;56.97;33.00;;;;;;;;;;4332353;33;20164;-79
2021/04/20 07:37:32;;;;;;;55.50;30.50;;;;;;;;;;4345309;33;20167;-78
2021/04/20 07:40:10;;;;;;;62.55;32.63;;;;;;;;;;4330393;33;20226;-77
2021/04/20 07:43:15;;;;;;;62.80;34.55;;;;;;;;;;4351225;33;20580;-78
2021/04/20 07:45:40;;;;;;;63.13;33.83;;;;;;;;;;4361685;32;20554;-78
2021/04/20 07:48:09;;;;;;;59.67;33.75;;;;;;;;;;4361473;32;20218;-79
2021/04/20 07:50:37;;;;;;;61.45;32.83;;;;;;;;;;4360033;32;20171;-78
2021/04/20 07:53:12;;;;;;;54.65;31.62;;;;;;;;;;4360187;32;20214;-78
2021/04/20 07:56:07;;;;;;;61.50;35.53;;;;;;;;;;4357819;32;20166;-78
2021/04/20 07:58:40;;;;;;;61.72;34.85;;;;;;;;;;4346031;33;20198;-78
2021/04/20 08:01:23;;;;;;;61.37;33.63;;;;;;;;;;4347662;33;20508;-78
2021/04/20 08:03:54;;;;;;;53.30;32.17;;;;;;;;;;4345734;33;20182;-80
2021/04/20 08:06:26;;;;;;;55.92;32.72;;;;;;;;;;4346666;32;20183;-77
2021/04/20 08:09:29;;;;;;;55.38;32.80;;;;;;;;;;4349338;32;20600;-78
2021/04/20 08:12:01;;;;;;;56.15;32.38;;;;;;;;;;4352977;32;20201;-78
2021/04/20 08:14:36;;;;;;;55.58;32.33;;;;;;;;;;4359950;32;20197;-78
2021/04/20 08:17:06;;;;;;;56.40;32.75;;;;;;;;;;4360049;32;20197;-78
2021/04/20 08:19:33;;;;;;;61.72;33.85;;;;;;;;;;4360010;32;20178;-76
2021/04/20 08:22:00;;;;;;;55.20;31.92;;;;;;;;;;4360700;32;20222;-78
2021/04/20 08:24:48;;;;;;;54.13;31.60;;;;;;;;;;4359606;33;20642;-80
2021/04/20 08:27:16;;;;;;;53.53;30.58;;;;;;;;;;4358415;33;20240;-78
2021/04/20 08:29:44;;;;;;;51.05;30.75;;;;;;;;;;4355677;32;20167;-77
2021/04/20 08:32:14;;;;;;;51.20;31.17;;;;;;;;;;4359428;32;20580;-78
2021/04/20 08:34:46;;;;;;;56.95;33.78;;;;;;;;;;4359275;32;20220;-78
2021/04/20 08:37:16;;;;;;;53.30;32.55;;;;;;;;;;4357866;32;20474;-75
2021/04/20 08:39:51;;;;;;;54.83;32.08;;;;;;;;;;4354415;32;20218;-78
2021/04/20 08:42:29;;;;;;;50.08;29.58;;;;;;;;;;4361331;32;20158;-77
2021/04/20 08:45:03;;;;;;;53.17;31.10;;;;;;;;;;4361661;32;20138;-79
2021/04/20 08:47:33;;;;;;;51.78;29.95;;;;;;;;;;4358856;33;20170;-80
2021/04/20 08:50:02;;;;;;;51.90;30.90;;;;;;;;;;4359185;32;20553;-79
2021/04/20 08:53:02;;;;;;;52.22;30.10;;;;;;;;;;4359464;32;20190;-78
2021/04/20 08:55:35;;;;;;;53.97;29.80;;;;;;;;;;4358312;32;20244;-78
2021/04/20 08:58:08;;;;;;;48.75;30.33;;;;;;;;;;4345043;33;20206;-76
2021/04/20 09:00:40;;;;;;;48.75;28.67;;;;;;;;;;4351992;32;20155;-80
2021/04/20 09:03:08;;;;;;;47.35;28.55;;;;;;;;;;4360229;32;20174;-79
2021/04/20 09:05:48;;;;;;;48.08;28.42;;;;;;;;;;4359296;32;20158;-78
2021/04/20 09:08:21;;;;;;;53.95;31.15;;;;;;;;;;4359659;32;20174;-78
2021/04/20 09:10:51;;;;;;;46.75;28.40;;;;;;;;;;4360060;32;20468;-78
2021/04/20 09:13:20;;;;;;;45.97;28.92;;;;;;;;;;4359180;32;20155;-78
2021/04/20 09:16:04;;;;;;;47.72;28.45;;;;;;;;;;4358725;32;20868;-78
2021/04/20 09:18:35;;;;;;;48.53;29.80;;;;;;;;;;4360044;32;20615;-77
2021/04/20 09:21:01;;;;;;;48.33;30.33;;;;;;;;;;4359660;32;20151;-79
2021/04/20 09:23:45;;;;;;;46.72;28.35;;;;;;;;;;4358679;33;20293;-77
2021/04/20 09:26:16;;;;;;;43.83;27.23;;;;;;;;;;4350339;32;20159;-78
2021/04/20 09:28:48;;;;;;;41.33;26.42;;;;;;;;;;4345558;33;20604;-78
2021/04/20 09:31:19;;;;;;;46.85;27.90;;;;;;;;;;4353282;33;20178;-78
2021/04/20 09:33:46;;;;;;;43.58;27.45;;;;;;;;;;4345544;33;20116;-76
2021/04/20 09:36:12;;;;;;;38.88;24.92;;;;;;;;;;4345495;33;20541;-77
2021/04/20 09:38:43;;;;;;;42.75;26.42;;;;;;;;;;4355694;33;20293;-78
2021/04/20 09:41:09;;;;;;;42.47;26.60;;;;;;;;;;4344152;33;20190;-77
2021/04/20 09:43:57;;;;;;;42.45;26.33;;;;;;;;;;4345048;33;20132;-78
2021/04/20 09:46:43;;;;;;;33.85;21.87;;;;;;;;;;4356062;33;20528;-76
2021/04/20 09:49:14;;;;;;;36.75;23.80;;;;;;;;;;4344612;32;20577;-77
2021/04/20 09:51:57;;;;;;;41.78;26.33;;;;;;;;;;4356432;32;20544;-78
2021/04/20 09:54:36;;;;;;;42.97;25.00;;;;;;;;;;4343962;33;20534;-78
2021/04/20 09:57:05;;;;;;;34.58;21.58;;;;;;;;;;4343689;33;20171;-76
2021/04/20 09:59:49;;;;;;;34.55;21.62;;;;;;;;;;4343924;33;20225;-78
2021/04/20 10:02:20;;;;;;;20.70;14.65;;;;;;;;;;4343444;33;20164;-79
2021/04/20 10:05:11;;;;;;;33.40;21.15;;;;;;;;;;4346394;33;20167;-78
2021/04/20 10:07:55;;;;;;;34.63;23.12;;;;;;;;;;4360752;32;20208;-78
2021/04/20 10:10:20;;;;;;;32.38;20.92;;;;;;;;;;4360098;33;20159;-77
2021/04/20 10:13:09;;;;;;;39.30;24.25;;;;;;;;;;4361139;32;20194;-77
2021/04/20 10:15:37;;;;;;;37.88;23.60;;;;;;;;;;4356806;32;20144;-79
2021/04/20 10:18:14;;;;;;;36.60;24.02;;;;;;;;;;4345042;32;20155;-77
2021/04/20 10:20:58;;;;;;;40.20;23.73;;;;;;;;;;4345596;33;20155;-78
2021/04/20 10:23:31;;;;;;;37.60;23.67;;;;;;;;;;4350352;33;20561;-79
2021/04/20 10:26:02;;;;;;;34.05;22.50;;;;;;;;;;4358800;32;20609;-79
2021/04/20 10:28:59;;;;;;;38.47;24.65;;;;;;;;;;4359994;32;20146;-80
2021/04/20 10:31:48;;;;;;;36.08;24.33;;;;;;;;;;4342384;33;20171;-78
2021/04/20 10:34:16;;;;;;;30.80;20.00;;;;;;;;;;4351554;33;20194;-77
2021/04/20 10:36:43;;;;;;;31.90;20.95;;;;;;;;;;4349706;33;20558;-78
2021/04/20 10:39:08;;;;;;;29.63;19.23;;;;;;;;;;4346688;32;20144;-78
2021/04/20 10:41:39;;;;;;;31.20;19.02;;;;;;;;;;4349758;33;20166;-79
2021/04/20 10:44:12;;;;;;;28.95;19.30;;;;;;;;;;4364389;33;20221;-80
2021/04/20 10:46:38;;;;;;;30.90;18.65;;;;;;;;;;4380978;32;20190;-80
2021/04/20 10:49:04;;;;;;;28.58;18.20;;;;;;;;;;4365235;32;20213;-78
2021/04/20 10:51:30;;;;;;;29.15;19.60;;;;;;;;;;4363436;33;20612;-79
2021/04/20 10:53:56;;;;;;;29.45;19.75;;;;;;;;;;4354374;32;20167;-80
2021/04/20 10:56:22;;;;;;;25.50;19.10;;;;;;;;;;4346084;33;20465;-80
2021/04/20 10:58:49;;;;;;;24.23;16.17;;;;;;;;;;4345542;33;20225;-78
2021/04/20 11:01:18;;;;;;;23.83;16.85;;;;;;;;;;4353082;33;20584;-78
2021/04/20 11:03:51;;;;;;;27.30;18.95;;;;;;;;;;4358554;33;20224;-78
2021/04/20 11:06:35;;;;;;;23.90;16.27;;;;;;;;;;4361236;32;20883;-78
2021/04/20 11:09:01;;;;;;;24.15;16.52;;;;;;;;;;4343466;33;20150;-78
2021/04/20 11:11:26;;;;;;;21.77;14.38;;;;;;;;;;4348679;33;20160;-77
2021/04/20 11:13:51;;;;;;;19.55;15.32;;;;;;;;;;4361222;32;20211;-78
2021/04/20 11:16:35;;;;;;;22.08;15.88;;;;;;;;;;4358818;33;20173;-77
2021/04/20 11:19:06;;;;;;;17.17;12.70;;;;;;;;;;4351526;33;20655;-79
2021/04/20 11:21:34;;;;;;;16.95;12.23;;;;;;;;;;4351580;33;20162;-77
2021/04/20 11:24:03;;;;;;;14.27;10.80;;;;;;;;;;4353004;33;20257;-78
2021/04/20 11:26:51;;;;;;;16.83;12.43;;;;;;;;;;4346407;33;20605;-78
2021/04/20 11:29:23;;;;;;;15.00;10.68;;;;;;;;;;4353298;33;20175;-78
2021/04/20 11:31:50;;;;;;;15.85;11.68;;;;;;;;;;4357544;33;20193;-79
2021/04/20 11:34:18;;;;;;;20.23;13.32;;;;;;;;;;4358463;32;20234;-75
2021/04/20 11:36:45;;;;;;;18.80;14.05;;;;;;;;;;4333302;32;20163;-79
2021/04/20 11:39:12;;;;;;;15.15;10.82;;;;;;;;;;4345206;33;20191;-77
2021/04/20 11:41:42;;;;;;;15.25;11.50;;;;;;;;;;4348223;32;20222;-79
2021/04/20 11:44:08;;;;;;;18.65;12.70;;;;;;;;;;4360953;32;20143;-78
2021/04/20 11:46:33;;;;;;;18.52;11.00;;;;;;;;;;4371566;32;20178;-77
2021/04/20 11:49:10;;;;;;;15.43;11.40;;;;;;;;;;4360025;32;20181;-79
2021/04/20 11:51:36;;;;;;;18.67;16.10;;;;;;;;;;4359550;32;20173;-78
2021/04/20 11:54:03;;;;;;;16.42;12.37;;;;;;;;;;4356975;32;20176;-78
2021/04/20 11:56:34;;;;;;;17.10;12.05;;;;;;;;;;4345959;33;20162;-77
2021/04/20 11:58:59;;;;;;;15.85;13.15;;;;;;;;;;4357620;32;20147;-77
2021/04/20 12:01:27;;;;;;;15.02;11.10;;;;;;;;;;4363172;32;20591;-80
2021/04/20 12:04:12;;;;;;;18.25;13.40;;;;;;;;;;4349352;32;20175;-78
2021/04/20 12:06:42;;;;;;;15.40;13.02;;;;;;;;;;4345634;33;20182;-79
2021/04/20 12:09:13;;;;;;;15.48;12.40;;;;;;;;;;4345269;33;20186;-76
2021/04/20 12:11:40;;;;;;;16.48;12.18;;;;;;;;;;4355213;32;20181;-79
2021/04/20 12:14:05;;;;;;;17.08;12.32;;;;;;;;;;4360760;32;20140;-79
2021/04/20 12:16:32;;;;;;;17.48;13.98;;;;;;;;;;4359501;32;20167;-78
2021/04/20 12:18:58;;;;;;;17.00;13.60;;;;;;;;;;4359993;32;20208;-79
2021/04/20 12:21:27;;;;;;;18.30;13.40;;;;;;;;;;4360140;32;20202;-78
2021/04/20 12:23:57;;;;;;;16.35;12.13;;;;;;;;;;4361054;32;20171;-78
2021/04/20 12:26:25;;;;;;;12.13;9.65;;;;;;;;;;4359110;32;20186;-78
2021/04/20 12:28:53;;;;;;;14.98;12.88;;;;;;;;;;4348530;32;20210;-76
2021/04/20 12:31:26;;;;;;;14.75;11.35;;;;;;;;;;4357478;32;20197;-77
2021/04/20 12:33:51;;;;;;;13.02;11.12;;;;;;;;;;4349650;33;20182;-77
2021/04/20 12:36:30;;;;;;;12.50;10.93;;;;;;;;;;4359900;32;20158;-78
2021/04/20 12:38:57;;;;;;;14.68;11.80;;;;;;;;;;4359362;32;20915;-77
2021/04/20 12:41:23;;;;;;;14.48;12.95;;;;;;;;;;4359897;32;20162;-78
2021/04/20 12:43:49;;;;;;;13.52;10.43;;;;;;;;;;4371474;32;20237;-76
2021/04/20 12:46:16;;;;;;;11.60;9.95;;;;;;;;;;4359567;32;20269;-78
2021/04/20 12:48:42;;;;;;;12.63;10.05;;;;;;;;;;4361035;32;20552;-79
2021/04/20 12:51:12;;;;;;;12.63;11.12;;;;;;;;;;4359897;32;20254;-77
2021/04/20 12:53:38;;;;;;;15.85;11.23;;;;;;;;;;4343637;33;20179;-76
2021/04/20 12:56:05;;;;;;;14.93;12.07;;;;;;;;;;4357090;32;20241;-78
2021/04/20 12:58:32;;;;;;;11.35;10.15;;;;;;;;;;4355795;33;20240;-77
2021/04/20 13:01:04;;;;;;;12.52;11.02;;;;;;;;;;4351397;33;20163;-78
2021/04/20 13:03:29;;;;;;;12.52;10.77;;;;;;;;;;4360181;32;20186;-78
2021/04/20 13:05:59;;;;;;;13.25;11.73;;;;;;;;;;4356387;33;20492;-78
2021/04/20 13:08:24;;;;;;;14.25;11.85;;;;;;;;;;4357192;32;20163;-78
2021/04/20 13:10:57;;;;;;;14.35;11.65;;;;;;;;;;4345177;32;20538;-80
2021/04/20 13:13:24;;;;;;;14.75;11.55;;;;;;;;;;4357355;32;20201;-78
2021/04/20 13:15:49;;;;;;;14.30;11.90;;;;;;;;;;4360080;32;20189;-76
2021/04/20 13:18:17;;;;;;;14.45;11.27;;;;;;;;;;4358110;32;20175;-76
2021/04/20 13:20:44;;;;;;;13.02;11.10;;;;;;;;;;4359313;32;20139;-77
2021/04/20 13:23:28;;;;;;;14.05;11.20;;;;;;;;;;4358932;32;20204;-76
2021/04/20 13:26:04;;;;;;;17.65;12.37;;;;;;;;;;4358981;32;20492;-77
2021/04/20 13:28:37;;;;;;;13.68;11.88;;;;;;;;;;4359308;32;20171;-79
2021/04/20 13:31:05;;;;;;;14.23;11.38;;;;;;;;;;4358235;32;20189;-76
2021/04/20 13:34:00;;;;;;;14.63;12.50;;;;;;;;;;4357773;32;20267;-80
2021/04/20 13:36:26;;;;;;;11.80;10.60;;;;;;;;;;4355053;32;20170;-77
2021/04/20 13:38:58;;;;;;;14.23;11.20;;;;;;;;;;4357236;32;20159;-76
2021/04/20 13:41:24;;;;;;;15.23;12.70;;;;;;;;;;4352552;32;20151;-78
2021/04/20 13:43:50;;;;;;;12.88;11.55;;;;;;;;;;4357362;32;20175;-79
2021/04/20 13:46:16;;;;;;;13.55;11.30;;;;;;;;;;4357052;33;20275;-78
2021/04/20 13:48:41;;;;;;;13.93;11.85;;;;;;;;;;4358351;32;20508;-77
2021/04/20 13:51:07;;;;;;;12.37;11.15;;;;;;;;;;4356878;33;20183;-77
2021/04/20 13:53:37;;;;;;;12.75;10.98;;;;;;;;;;4358400;32;20135;-78
2021/04/20 13:56:03;;;;;;;13.55;11.93;;;;;;;;;;4358280;32;20227;-74
2021/04/20 13:58:30;;;;;;;13.43;11.55;;;;;;;;;;4358251;32;20427;-79
2021/04/20 14:00:57;;;;;;;13.73;11.77;;;;;;;;;;4357225;32;20549;-78
2021/04/20 14:03:25;;;;;;;11.35;10.25;;;;;;;;;;4356108;32;20182;-80
2021/04/20 14:05:51;;;;;;;14.20;12.13;;;;;;;;;;4345410;32;20237;-77
2021/04/20 14:08:22;;;;;;;14.10;12.50;;;;;;;;;;4355257;33;20174;-79
2021/04/20 14:10:51;;;;;;;11.95;10.75;;;;;;;;;;4343031;33;20243;-80
2021/04/20 14:13:20;;;;;;;15.63;12.27;;;;;;;;;;4341060;33;20167;-76
2021/04/20 14:15:48;;;;;;;13.10;11.70;;;;;;;;;;4342403;33;20205;-77
2021/04/20 14:18:16;;;;;;;15.68;12.68;;;;;;;;;;4355298;33;20178;-80
2021/04/20 14:20:43;;;;;;;12.27;11.07;;;;;;;;;;4356121;32;20162;-78
2021/04/20 14:23:11;;;;;;;10.82;9.30;;;;;;;;;;4357025;32;20446;-77
2021/04/20 14:25:41;;;;;;;14.68;12.00;;;;;;;;;;4357442;33;20174;-78
2021/04/20 14:28:08;;;;;;;14.02;10.55;;;;;;;;;;4358542;32;20192;-75
2021/04/20 14:30:34;;;;;;;14.70;11.75;;;;;;;;;;4369269;32;20226;-77
2021/04/20 14:33:02;;;;;;;13.48;11.50;;;;;;;;;;4358400;32;20151;-79
2021/04/20 14:35:32;;;;;;;17.15;11.85;;;;;;;;;;4356833;33;20163;-78
2021/04/20 14:37:59;;;;;;;14.02;11.95;;;;;;;;;;4353395;32;20238;-79